sensor_id;sensor_type;location;lat;lon;timestamp;P1;durP1;ratioP1;P2;durP2;ratioP2
32812;SDS011;19162;48.254;11.454;2022-11-20T00:01:38;2.88;;;2.67;;
32812;SDS011;19162;48.254;11.454;2022-11-20T00:04:38;2.70;;;2.50;;
32812;SDS011;19162;48.254;11.454;2022-11-20T00:07:39;2.28;;;2.08;;
32812;SDS011;19162;48.254;11.454;2022-11-20T00:10:39;2.70;;;2.50;;
32812;SDS011;19162;48.254;11.454;2022-11-20T00:13:40;2.80;;;2.45;;
32812;SDS011;19162;48.254;11.454;2022-11-20T00:16:40;2.95;;;2.33;;
32812;SDS011;19162;48.254;11.454;2022-11-20T00:19:40;3.30;;;3.00;;
32812;SDS011;19162;48.254;11.454;2022-11-20T00:22:41;3.33;;;2.70;;
32812;SDS011;19162;48.254;11.454;2022-11-20T00:25:41;2.50;;;2.40;;
32812;SDS011;19162;48.254;11.454;2022-11-20T00:28:41;4.38;;;3.15;;
32812;SDS011;19162;48.254;11.454;2022-11-20T00:31:42;2.38;;;2.17;;
32812;SDS011;19162;48.254;11.454;2022-11-20T00:34:42;4.13;;;2.53;;
32812;SDS011;19162;48.254;11.454;2022-11-20T00:37:42;2.80;;;2.60;;
32812;SDS011;19162;48.254;11.454;2022-11-20T00:40:42;2.35;;;2.15;;
32812;SDS011;19162;48.254;11.454;2022-11-20T00:43:43;3.97;;;2.30;;
32812;SDS011;19162;48.254;11.454;2022-11-20T00:46:43;2.77;;;2.53;;
32812;SDS011;19162;48.254;11.454;2022-11-20T00:49:43;4.10;;;2.30;;
32812;SDS011;19162;48.254;11.454;2022-11-20T00:52:43;2.80;;;2.60;;
32812;SDS011;19162;48.254;11.454;2022-11-20T00:55:52;2.60;;;2.40;;
32812;SDS011;19162;48.254;11.454;2022-11-20T00:58:52;3.05;;;2.60;;
32812;SDS011;19162;48.254;11.454;2022-11-20T01:01:52;2.33;;;2.23;;
32812;SDS011;19162;48.254;11.454;2022-11-20T01:04:52;2.30;;;2.10;;
32812;SDS011;19162;48.254;11.454;2022-11-20T01:07:52;2.60;;;2.40;;
32812;SDS011;19162;48.254;11.454;2022-11-20T01:10:53;3.67;;;2.58;;
32812;SDS011;19162;48.254;11.454;2022-11-20T01:13:58;3.80;;;2.42;;
32812;SDS011;19162;48.254;11.454;2022-11-20T01:16:59;2.70;;;2.42;;
32812;SDS011;19162;48.254;11.454;2022-11-20T01:19:59;2.60;;;2.40;;
32812;SDS011;19162;48.254;11.454;2022-11-20T01:22:59;2.60;;;2.40;;
32812;SDS011;19162;48.254;11.454;2022-11-20T01:26:00;3.33;;;2.67;;
32812;SDS011;19162;48.254;11.454;2022-11-20T01:29:02;3.05;;;2.80;;
32812;SDS011;19162;48.254;11.454;2022-11-20T01:32:03;3.20;;;2.90;;
32812;SDS011;19162;48.254;11.454;2022-11-20T01:35:03;3.17;;;2.90;;
32812;SDS011;19162;48.254;11.454;2022-11-20T01:38:03;3.50;;;3.03;;
32812;SDS011;19162;48.254;11.454;2022-11-20T01:41:03;3.72;;;2.78;;
32812;SDS011;19162;48.254;11.454;2022-11-20T01:44:04;2.85;;;2.65;;
32812;SDS011;19162;48.254;11.454;2022-11-20T01:47:04;4.18;;;2.60;;
32812;SDS011;19162;48.254;11.454;2022-11-20T01:50:19;2.65;;;2.45;;
32812;SDS011;19162;48.254;11.454;2022-11-20T01:53:23;3.00;;;2.70;;
32812;SDS011;19162;48.254;11.454;2022-11-20T01:56:24;2.83;;;2.63;;
32812;SDS011;19162;48.254;11.454;2022-11-20T01:59:26;3.50;;;3.05;;
32812;SDS011;19162;48.254;11.454;2022-11-20T02:02:27;3.58;;;2.80;;
32812;SDS011;19162;48.254;11.454;2022-11-20T02:08:34;3.65;;;2.90;;
32812;SDS011;19162;48.254;11.454;2022-11-20T02:11:35;3.25;;;2.80;;
32812;SDS011;19162;48.254;11.454;2022-11-20T02:14:35;3.37;;;3.07;;
32812;SDS011;19162;48.254;11.454;2022-11-20T02:17:35;3.22;;;2.70;;
32812;SDS011;19162;48.254;11.454;2022-11-20T02:20:36;3.50;;;3.20;;
32812;SDS011;19162;48.254;11.454;2022-11-20T02:26:54;2.78;;;2.58;;
32812;SDS011;19162;48.254;11.454;2022-11-20T02:30:04;3.15;;;2.95;;
32812;SDS011;19162;48.254;11.454;2022-11-20T02:33:05;3.50;;;3.20;;
32812;SDS011;19162;48.254;11.454;2022-11-20T02:36:07;2.90;;;2.60;;
32812;SDS011;19162;48.254;11.454;2022-11-20T02:39:10;3.83;;;3.53;;
32812;SDS011;19162;48.254;11.454;2022-11-20T02:42:12;3.60;;;3.30;;
32812;SDS011;19162;48.254;11.454;2022-11-20T02:45:12;3.63;;;3.33;;
32812;SDS011;19162;48.254;11.454;2022-11-20T02:48:12;3.30;;;3.10;;
32812;SDS011;19162;48.254;11.454;2022-11-20T02:51:12;3.10;;;2.80;;
32812;SDS011;19162;48.254;11.454;2022-11-20T02:54:12;3.80;;;3.25;;
32812;SDS011;19162;48.254;11.454;2022-11-20T02:57:13;3.20;;;3.00;;
32812;SDS011;19162;48.254;11.454;2022-11-20T03:00:13;3.70;;;2.67;;
32812;SDS011;19162;48.254;11.454;2022-11-20T03:03:13;3.80;;;3.40;;
32812;SDS011;19162;48.254;11.454;2022-11-20T03:06:14;3.47;;;3.17;;
32812;SDS011;19162;48.254;11.454;2022-11-20T03:09:15;3.20;;;2.92;;
32812;SDS011;19162;48.254;11.454;2022-11-20T03:12:15;3.38;;;3.05;;
32812;SDS011;19162;48.254;11.454;2022-11-20T03:15:15;3.65;;;3.40;;
32812;SDS011;19162;48.254;11.454;2022-11-20T03:18:15;3.23;;;2.97;;
32812;SDS011;19162;48.254;11.454;2022-11-20T03:21:16;4.33;;;3.10;;
32812;SDS011;19162;48.254;11.454;2022-11-20T03:24:16;3.57;;;3.27;;
32812;SDS011;19162;48.254;11.454;2022-11-20T03:27:16;2.78;;;2.58;;
32812;SDS011;19162;48.254;11.454;2022-11-20T03:30:16;4.10;;;3.70;;
32812;SDS011;19162;48.254;11.454;2022-11-20T03:33:17;3.40;;;3.20;;
32812;SDS011;19162;48.254;11.454;2022-11-20T03:36:17;3.25;;;3.05;;
32812;SDS011;19162;48.254;11.454;2022-11-20T03:39:18;3.03;;;2.83;;
32812;SDS011;19162;48.254;11.454;2022-11-20T03:42:18;3.45;;;2.78;;
32812;SDS011;19162;48.254;11.454;2022-11-20T03:45:37;3.17;;;2.97;;
32812;SDS011;19162;48.254;11.454;2022-11-20T03:48:37;3.07;;;2.80;;
32812;SDS011;19162;48.254;11.454;2022-11-20T03:51:37;2.80;;;2.60;;
32812;SDS011;19162;48.254;11.454;2022-11-20T03:54:37;3.50;;;3.20;;
32812;SDS011;19162;48.254;11.454;2022-11-20T03:57:37;3.50;;;3.20;;
32812;SDS011;19162;48.254;11.454;2022-11-20T04:00:38;3.17;;;2.97;;
32812;SDS011;19162;48.254;11.454;2022-11-20T04:03:38;3.33;;;2.97;;
32812;SDS011;19162;48.254;11.454;2022-11-20T04:06:39;3.95;;;3.00;;
32812;SDS011;19162;48.254;11.454;2022-11-20T04:09:39;3.03;;;2.83;;
32812;SDS011;19162;48.254;11.454;2022-11-20T04:12:39;3.35;;;3.13;;
32812;SDS011;19162;48.254;11.454;2022-11-20T04:15:39;3.10;;;2.90;;
32812;SDS011;19162;48.254;11.454;2022-11-20T04:18:39;3.50;;;2.85;;
32812;SDS011;19162;48.254;11.454;2022-11-20T04:21:40;3.00;;;2.80;;
32812;SDS011;19162;48.254;11.454;2022-11-20T04:24:40;3.30;;;2.70;;
32812;SDS011;19162;48.254;11.454;2022-11-20T04:27:41;2.97;;;2.78;;
32812;SDS011;19162;48.254;11.454;2022-11-20T04:30:41;7.18;;;3.50;;
32812;SDS011;19162;48.254;11.454;2022-11-20T04:33:41;3.45;;;3.15;;
32812;SDS011;19162;48.254;11.454;2022-11-20T04:36:41;3.80;;;3.50;;
32812;SDS011;19162;48.254;11.454;2022-11-20T04:39:42;3.35;;;2.90;;
32812;SDS011;19162;48.254;11.454;2022-11-20T04:42:42;3.90;;;3.00;;
32812;SDS011;19162;48.254;11.454;2022-11-20T04:45:42;4.18;;;3.42;;
32812;SDS011;19162;48.254;11.454;2022-11-20T04:48:43;4.87;;;3.30;;
32812;SDS011;19162;48.254;11.454;2022-11-20T04:51:43;3.55;;;3.25;;
32812;SDS011;19162;48.254;11.454;2022-11-20T04:54:43;3.45;;;3.25;;
32812;SDS011;19162;48.254;11.454;2022-11-20T04:57:43;3.33;;;3.13;;
32812;SDS011;19162;48.254;11.454;2022-11-20T05:00:44;3.20;;;3.00;;
32812;SDS011;19162;48.254;11.454;2022-11-20T05:03:44;3.17;;;2.87;;
32812;SDS011;19162;48.254;11.454;2022-11-20T05:06:44;3.03;;;2.83;;
32812;SDS011;19162;48.254;11.454;2022-11-20T05:09:45;3.35;;;2.75;;
32812;SDS011;19162;48.254;11.454;2022-11-20T05:12:45;3.33;;;3.07;;
32812;SDS011;19162;48.254;11.454;2022-11-20T05:15:45;3.20;;;2.95;;
32812;SDS011;19162;48.254;11.454;2022-11-20T05:18:46;3.13;;;2.93;;
32812;SDS011;19162;48.254;11.454;2022-11-20T05:21:46;3.53;;;3.30;;
32812;SDS011;19162;48.254;11.454;2022-11-20T05:24:46;3.17;;;2.97;;
32812;SDS011;19162;48.254;11.454;2022-11-20T05:27:46;3.00;;;2.78;;
32812;SDS011;19162;48.254;11.454;2022-11-20T05:30:48;3.55;;;3.05;;
32812;SDS011;19162;48.254;11.454;2022-11-20T05:33:48;2.85;;;2.65;;
32812;SDS011;19162;48.254;11.454;2022-11-20T05:36:48;3.03;;;2.83;;
32812;SDS011;19162;48.254;11.454;2022-11-20T05:39:48;3.08;;;2.85;;
32812;SDS011;19162;48.254;11.454;2022-11-20T05:42:49;2.83;;;2.63;;
32812;SDS011;19162;48.254;11.454;2022-11-20T05:45:55;3.45;;;3.00;;
32812;SDS011;19162;48.254;11.454;2022-11-20T05:48:56;3.97;;;2.70;;
32812;SDS011;19162;48.254;11.454;2022-11-20T05:51:56;2.67;;;2.47;;
32812;SDS011;19162;48.254;11.454;2022-11-20T05:54:56;3.20;;;2.90;;
32812;SDS011;19162;48.254;11.454;2022-11-20T05:57:57;2.95;;;2.53;;
32812;SDS011;19162;48.254;11.454;2022-11-20T06:04:26;3.15;;;2.95;;
32812;SDS011;19162;48.254;11.454;2022-11-20T06:07:26;2.50;;;2.30;;
32812;SDS011;19162;48.254;11.454;2022-11-20T06:10:27;2.80;;;2.60;;
32812;SDS011;19162;48.254;11.454;2022-11-20T06:13:27;2.88;;;2.67;;
32812;SDS011;19162;48.254;11.454;2022-11-20T06:16:27;2.67;;;2.47;;
32812;SDS011;19162;48.254;11.454;2022-11-20T06:19:27;2.50;;;2.30;;
32812;SDS011;19162;48.254;11.454;2022-11-20T06:22:27;2.37;;;2.20;;
32812;SDS011;19162;48.254;11.454;2022-11-20T06:25:28;2.88;;;2.67;;
32812;SDS011;19162;48.254;11.454;2022-11-20T06:28:28;4.20;;;2.55;;
32812;SDS011;19162;48.254;11.454;2022-11-20T06:31:28;2.47;;;2.27;;
32812;SDS011;19162;48.254;11.454;2022-11-20T06:34:28;3.03;;;2.30;;
32812;SDS011;19162;48.254;11.454;2022-11-20T06:37:28;2.72;;;2.53;;
32812;SDS011;19162;48.254;11.454;2022-11-20T06:40:29;2.60;;;2.40;;
32812;SDS011;19162;48.254;11.454;2022-11-20T06:43:29;2.93;;;2.20;;
32812;SDS011;19162;48.254;11.454;2022-11-20T06:46:29;2.50;;;2.00;;
32812;SDS011;19162;48.254;11.454;2022-11-20T06:49:30;3.33;;;3.03;;
32812;SDS011;19162;48.254;11.454;2022-11-20T06:52:30;2.70;;;2.50;;
32812;SDS011;19162;48.254;11.454;2022-11-20T06:55:30;2.50;;;2.30;;
32812;SDS011;19162;48.254;11.454;2022-11-20T06:58:31;2.30;;;2.20;;
32812;SDS011;19162;48.254;11.454;2022-11-20T07:01:32;2.50;;;2.30;;
32812;SDS011;19162;48.254;11.454;2022-11-20T07:04:32;2.37;;;2.10;;
32812;SDS011;19162;48.254;11.454;2022-11-20T07:07:32;3.22;;;2.50;;
32812;SDS011;19162;48.254;11.454;2022-11-20T07:10:32;2.27;;;2.17;;
32812;SDS011;19162;48.254;11.454;2022-11-20T07:13:33;2.77;;;2.47;;
32812;SDS011;19162;48.254;11.454;2022-11-20T07:16:33;3.80;;;2.13;;
32812;SDS011;19162;48.254;11.454;2022-11-20T07:19:33;2.63;;;2.42;;
32812;SDS011;19162;48.254;11.454;2022-11-20T07:22:33;2.70;;;2.50;;
32812;SDS011;19162;48.254;11.454;2022-11-20T07:25:33;3.08;;;2.30;;
32812;SDS011;19162;48.254;11.454;2022-11-20T07:28:33;2.70;;;2.50;;
32812;SDS011;19162;48.254;11.454;2022-11-20T07:31:34;2.80;;;2.60;;
32812;SDS011;19162;48.254;11.454;2022-11-20T07:34:34;2.37;;;2.23;;
32812;SDS011;19162;48.254;11.454;2022-11-20T07:37:34;3.83;;;2.47;;
32812;SDS011;19162;48.254;11.454;2022-11-20T07:40:35;2.63;;;2.40;;
32812;SDS011;19162;48.254;11.454;2022-11-20T07:43:35;3.03;;;2.83;;
32812;SDS011;19162;48.254;11.454;2022-11-20T07:46:35;2.77;;;2.57;;
32812;SDS011;19162;48.254;11.454;2022-11-20T07:49:36;2.58;;;2.42;;
32812;SDS011;19162;48.254;11.454;2022-11-20T07:52:36;2.83;;;2.67;;
32812;SDS011;19162;48.254;11.454;2022-11-20T07:55:36;3.33;;;3.03;;
32812;SDS011;19162;48.254;11.454;2022-11-20T07:58:36;3.95;;;3.63;;
32812;SDS011;19162;48.254;11.454;2022-11-20T08:01:37;3.33;;;3.03;;
32812;SDS011;19162;48.254;11.454;2022-11-20T08:04:37;3.47;;;3.17;;
32812;SDS011;19162;48.254;11.454;2022-11-20T08:07:38;3.00;;;2.80;;
32812;SDS011;19162;48.254;11.454;2022-11-20T08:10:39;3.35;;;2.70;;
32812;SDS011;19162;48.254;11.454;2022-11-20T08:13:39;3.53;;;3.00;;
32812;SDS011;19162;48.254;11.454;2022-11-20T08:16:58;2.88;;;2.67;;
32812;SDS011;19162;48.254;11.454;2022-11-20T08:19:59;3.28;;;3.05;;
32812;SDS011;19162;48.254;11.454;2022-11-20T08:23:00;3.00;;;2.80;;
32812;SDS011;19162;48.254;11.454;2022-11-20T08:26:00;2.83;;;2.63;;
32812;SDS011;19162;48.254;11.454;2022-11-20T08:29:00;2.88;;;2.58;;
32812;SDS011;19162;48.254;11.454;2022-11-20T08:32:01;2.75;;;2.42;;
32812;SDS011;19162;48.254;11.454;2022-11-20T08:35:01;2.80;;;2.60;;
32812;SDS011;19162;48.254;11.454;2022-11-20T08:38:02;3.30;;;3.00;;
32812;SDS011;19162;48.254;11.454;2022-11-20T08:41:02;2.85;;;2.58;;
32812;SDS011;19162;48.254;11.454;2022-11-20T08:44:21;2.95;;;2.75;;
32812;SDS011;19162;48.254;11.454;2022-11-20T08:47:22;2.80;;;2.43;;
32812;SDS011;19162;48.254;11.454;2022-11-20T08:50:22;4.00;;;2.58;;
32812;SDS011;19162;48.254;11.454;2022-11-20T08:53:22;2.97;;;2.63;;
32812;SDS011;19162;48.254;11.454;2022-11-20T08:56:22;2.80;;;2.60;;
32812;SDS011;19162;48.254;11.454;2022-11-20T08:59:22;4.03;;;3.30;;
32812;SDS011;19162;48.254;11.454;2022-11-20T09:02:23;3.22;;;2.92;;
32812;SDS011;19162;48.254;11.454;2022-11-20T09:05:23;3.33;;;2.78;;
32812;SDS011;19162;48.254;11.454;2022-11-20T09:08:23;6.10;;;5.60;;
32812;SDS011;19162;48.254;11.454;2022-11-20T09:11:23;4.07;;;3.67;;
32812;SDS011;19162;48.254;11.454;2022-11-20T09:14:24;4.43;;;4.13;;
32812;SDS011;19162;48.254;11.454;2022-11-20T09:17:29;3.88;;;3.58;;
32812;SDS011;19162;48.254;11.454;2022-11-20T09:20:29;3.85;;;3.55;;
32812;SDS011;19162;48.254;11.454;2022-11-20T09:23:36;4.20;;;3.90;;
32812;SDS011;19162;48.254;11.454;2022-11-20T09:26:37;6.35;;;5.85;;
32812;SDS011;19162;48.254;11.454;2022-11-20T09:29:37;3.10;;;2.80;;
32812;SDS011;19162;48.254;11.454;2022-11-20T09:32:40;3.33;;;3.13;;
32812;SDS011;19162;48.254;11.454;2022-11-20T09:35:40;2.95;;;2.75;;
32812;SDS011;19162;48.254;11.454;2022-11-20T09:38:43;10.93;;;9.98;;
32812;SDS011;19162;48.254;11.454;2022-11-20T09:48:05;5.13;;;4.72;;
32812;SDS011;19162;48.254;11.454;2022-11-20T09:51:25;4.80;;;4.40;;
32812;SDS011;19162;48.254;11.454;2022-11-20T09:54:37;9.50;;;8.88;;
32812;SDS011;19162;48.254;11.454;2022-11-20T09:57:39;7.82;;;7.22;;
32812;SDS011;19162;48.254;11.454;2022-11-20T10:00:40;4.03;;;3.72;;
32812;SDS011;19162;48.254;11.454;2022-11-20T10:03:45;2.80;;;2.60;;
32812;SDS011;19162;48.254;11.454;2022-11-20T10:10:05;2.78;;;2.58;;
32812;SDS011;19162;48.254;11.454;2022-11-20T10:16:27;7.15;;;6.43;;
32812;SDS011;19162;48.254;11.454;2022-11-20T10:22:47;3.47;;;3.17;;
32812;SDS011;19162;48.254;11.454;2022-11-20T10:28:57;4.10;;;3.80;;
32812;SDS011;19162;48.254;11.454;2022-11-20T10:32:13;2.58;;;2.47;;
32812;SDS011;19162;48.254;11.454;2022-11-20T10:38:31;2.42;;;2.30;;
32812;SDS011;19162;48.254;11.454;2022-11-20T10:41:38;3.60;;;3.30;;
32812;SDS011;19162;48.254;11.454;2022-11-20T10:44:39;3.33;;;2.78;;
32812;SDS011;19162;48.254;11.454;2022-11-20T10:48:10;3.00;;;2.38;;
32812;SDS011;19162;48.254;11.454;2022-11-20T10:51:12;3.57;;;3.27;;
32812;SDS011;19162;48.254;11.454;2022-11-20T11:00:42;8.87;;;8.17;;
32812;SDS011;19162;48.254;11.454;2022-11-20T11:03:42;5.30;;;4.90;;
32812;SDS011;19162;48.254;11.454;2022-11-20T11:06:43;2.17;;;1.98;;
32812;SDS011;19162;48.254;11.454;2022-11-20T11:09:48;2.38;;;2.17;;
32812;SDS011;19162;48.254;11.454;2022-11-20T11:12:49;1.90;;;1.63;;
32812;SDS011;19162;48.254;11.454;2022-11-20T11:15:49;1.93;;;1.67;;
32812;SDS011;19162;48.254;11.454;2022-11-20T11:18:49;1.93;;;1.73;;
32812;SDS011;19162;48.254;11.454;2022-11-20T11:21:51;2.08;;;1.83;;
32812;SDS011;19162;48.254;11.454;2022-11-20T11:24:52;2.10;;;1.95;;
32812;SDS011;19162;48.254;11.454;2022-11-20T11:27:53;2.50;;;2.30;;
32812;SDS011;19162;48.254;11.454;2022-11-20T11:30:55;4.28;;;2.13;;
32812;SDS011;19162;48.254;11.454;2022-11-20T11:34:06;2.53;;;1.80;;
32812;SDS011;19162;48.254;11.454;2022-11-20T11:37:13;3.72;;;1.90;;
32812;SDS011;19162;48.254;11.454;2022-11-20T11:40:15;1.83;;;1.63;;
32812;SDS011;19162;48.254;11.454;2022-11-20T11:43:21;1.83;;;1.73;;
32812;SDS011;19162;48.254;11.454;2022-11-20T11:46:40;1.50;;;1.27;;
32812;SDS011;19162;48.254;11.454;2022-11-20T11:49:43;2.80;;;1.42;;
32812;SDS011;19162;48.254;11.454;2022-11-20T11:52:45;1.37;;;1.27;;
32812;SDS011;19162;48.254;11.454;2022-11-20T11:55:51;1.33;;;1.23;;
32812;SDS011;19162;48.254;11.454;2022-11-20T11:58:54;1.77;;;1.30;;
32812;SDS011;19162;48.254;11.454;2022-11-20T12:02:00;1.77;;;1.45;;
32812;SDS011;19162;48.254;11.454;2022-11-20T12:05:16;1.35;;;1.25;;
32812;SDS011;19162;48.254;11.454;2022-11-20T12:11:45;1.27;;;1.17;;
32812;SDS011;19162;48.254;11.454;2022-11-20T12:14:47;1.70;;;1.60;;
32812;SDS011;19162;48.254;11.454;2022-11-20T12:17:49;1.58;;;1.48;;
32812;SDS011;19162;48.254;11.454;2022-11-20T12:27:34;1.38;;;1.27;;
32812;SDS011;19162;48.254;11.454;2022-11-20T12:30:46;1.60;;;1.40;;
32812;SDS011;19162;48.254;11.454;2022-11-20T12:33:54;1.45;;;1.35;;
32812;SDS011;19162;48.254;11.454;2022-11-20T12:37:08;2.33;;;1.48;;
32812;SDS011;19162;48.254;11.454;2022-11-20T12:40:24;1.70;;;1.60;;
32812;SDS011;19162;48.254;11.454;2022-11-20T12:43:27;1.55;;;1.45;;
32812;SDS011;19162;48.254;11.454;2022-11-20T12:47:14;1.52;;;1.42;;
32812;SDS011;19162;48.254;11.454;2022-11-20T12:57:01;2.45;;;1.50;;
32812;SDS011;19162;48.254;11.454;2022-11-20T13:00:08;1.60;;;1.50;;
32812;SDS011;19162;48.254;11.454;2022-11-20T13:03:14;1.33;;;1.25;;
32812;SDS011;19162;48.254;11.454;2022-11-20T13:06:18;1.85;;;1.75;;
32812;SDS011;19162;48.254;11.454;2022-11-20T13:09:19;2.45;;;1.50;;
32812;SDS011;19162;48.254;11.454;2022-11-20T13:12:32;1.73;;;1.63;;
32812;SDS011;19162;48.254;11.454;2022-11-20T13:15:36;1.98;;;1.38;;
32812;SDS011;19162;48.254;11.454;2022-11-20T13:18:38;2.05;;;1.95;;
32812;SDS011;19162;48.254;11.454;2022-11-20T13:21:44;1.60;;;1.50;;
32812;SDS011;19162;48.254;11.454;2022-11-20T13:24:49;1.85;;;1.58;;
32812;SDS011;19162;48.254;11.454;2022-11-20T13:27:50;1.95;;;1.85;;
32812;SDS011;19162;48.254;11.454;2022-11-20T13:30:53;2.25;;;2.05;;
32812;SDS011;19162;48.254;11.454;2022-11-20T13:33:54;4.32;;;3.75;;
32812;SDS011;19162;48.254;11.454;2022-11-20T13:36:57;2.15;;;1.95;;
32812;SDS011;19162;48.254;11.454;2022-11-20T13:46:19;3.03;;;2.72;;
32812;SDS011;19162;48.254;11.454;2022-11-20T13:49:34;4.22;;;3.92;;
32812;SDS011;19162;48.254;11.454;2022-11-20T13:55:46;2.55;;;2.35;;
32812;SDS011;19162;48.254;11.454;2022-11-20T13:59:02;2.40;;;1.80;;
32812;SDS011;19162;48.254;11.454;2022-11-20T14:02:15;2.38;;;2.15;;
32812;SDS011;19162;48.254;11.454;2022-11-20T14:05:19;3.28;;;2.97;;
32812;SDS011;19162;48.254;11.454;2022-11-20T14:08:24;2.28;;;1.90;;
32812;SDS011;19162;48.254;11.454;2022-11-20T14:11:26;2.60;;;2.40;;
32812;SDS011;19162;48.254;11.454;2022-11-20T14:14:27;2.60;;;2.40;;
32812;SDS011;19162;48.254;11.454;2022-11-20T14:20:31;2.45;;;2.17;;
32812;SDS011;19162;48.254;11.454;2022-11-20T14:23:32;2.55;;;2.35;;
32812;SDS011;19162;48.254;11.454;2022-11-20T14:26:32;3.57;;;3.27;;
32812;SDS011;19162;48.254;11.454;2022-11-20T14:29:34;4.53;;;4.13;;
32812;SDS011;19162;48.254;11.454;2022-11-20T14:32:35;4.00;;;3.70;;
32812;SDS011;19162;48.254;11.454;2022-11-20T14:35:37;2.35;;;2.15;;
32812;SDS011;19162;48.254;11.454;2022-11-20T14:38:40;3.40;;;3.10;;
32812;SDS011;19162;48.254;11.454;2022-11-20T14:41:49;17.27;;;15.80;;
32812;SDS011;19162;48.254;11.454;2022-11-20T14:44:50;9.68;;;8.88;;
32812;SDS011;19162;48.254;11.454;2022-11-20T14:47:51;5.53;;;5.03;;
32812;SDS011;19162;48.254;11.454;2022-11-20T14:50:53;4.50;;;4.20;;
32812;SDS011;19162;48.254;11.454;2022-11-20T14:53:53;4.45;;;4.03;;
32812;SDS011;19162;48.254;11.454;2022-11-20T14:56:57;5.63;;;5.23;;
32812;SDS011;19162;48.254;11.454;2022-11-20T15:03:16;4.90;;;4.43;;
32812;SDS011;19162;48.254;11.454;2022-11-20T15:06:16;2.90;;;2.70;;
32812;SDS011;19162;48.254;11.454;2022-11-20T15:09:25;3.13;;;2.92;;
32812;SDS011;19162;48.254;11.454;2022-11-20T15:12:25;3.75;;;3.45;;
32812;SDS011;19162;48.254;11.454;2022-11-20T15:15:35;10.07;;;9.20;;
32812;SDS011;19162;48.254;11.454;2022-11-20T15:18:36;2.95;;;2.75;;
32812;SDS011;19162;48.254;11.454;2022-11-20T15:21:37;4.82;;;4.40;;
32812;SDS011;19162;48.254;11.454;2022-11-20T15:24:37;2.33;;;2.10;;
32812;SDS011;19162;48.254;11.454;2022-11-20T15:27:37;1.95;;;1.85;;
32812;SDS011;19162;48.254;11.454;2022-11-20T15:30:37;3.10;;;2.80;;
32812;SDS011;19162;48.254;11.454;2022-11-20T15:33:38;3.37;;;3.03;;
32812;SDS011;19162;48.254;11.454;2022-11-20T15:36:38;3.57;;;3.17;;
32812;SDS011;19162;48.254;11.454;2022-11-20T15:39:39;4.60;;;4.18;;
32812;SDS011;19162;48.254;11.454;2022-11-20T15:42:39;11.67;;;10.60;;
32812;SDS011;19162;48.254;11.454;2022-11-20T15:46:00;3.42;;;3.20;;
32812;SDS011;19162;48.254;11.454;2022-11-20T15:49:01;2.38;;;1.80;;
32812;SDS011;19162;48.254;11.454;2022-11-20T15:52:01;2.27;;;2.07;;
32812;SDS011;19162;48.254;11.454;2022-11-20T15:55:04;4.80;;;3.63;;
32812;SDS011;19162;48.254;11.454;2022-11-20T15:58:04;3.30;;;3.00;;
32812;SDS011;19162;48.254;11.454;2022-11-20T16:01:05;18.45;;;17.15;;
32812;SDS011;19162;48.254;11.454;2022-11-20T16:04:09;5.57;;;5.07;;
32812;SDS011;19162;48.254;11.454;2022-11-20T16:07:09;4.13;;;3.72;;
32812;SDS011;19162;48.254;11.454;2022-11-20T16:10:09;5.80;;;5.30;;
32812;SDS011;19162;48.254;11.454;2022-11-20T16:13:13;8.50;;;7.95;;
32812;SDS011;19162;48.254;11.454;2022-11-20T16:16:33;12.82;;;12.13;;
32812;SDS011;19162;48.254;11.454;2022-11-20T16:19:34;6.15;;;5.80;;
32812;SDS011;19162;48.254;11.454;2022-11-20T16:22:34;6.75;;;6.25;;
32812;SDS011;19162;48.254;11.454;2022-11-20T16:25:34;13.73;;;12.73;;
32812;SDS011;19162;48.254;11.454;2022-11-20T16:28:34;6.73;;;6.17;;
32812;SDS011;19162;48.254;11.454;2022-11-20T16:31:34;6.77;;;6.17;;
32812;SDS011;19162;48.254;11.454;2022-11-20T16:34:35;12.85;;;11.77;;
32812;SDS011;19162;48.254;11.454;2022-11-20T16:37:35;13.13;;;12.10;;
32812;SDS011;19162;48.254;11.454;2022-11-20T16:40:35;7.05;;;6.53;;
32812;SDS011;19162;48.254;11.454;2022-11-20T16:43:35;8.25;;;7.55;;
32812;SDS011;19162;48.254;11.454;2022-11-20T16:46:36;13.63;;;12.48;;
32812;SDS011;19162;48.254;11.454;2022-11-20T16:49:36;11.20;;;10.23;;
32812;SDS011;19162;48.254;11.454;2022-11-20T16:52:36;10.23;;;9.33;;
32812;SDS011;19162;48.254;11.454;2022-11-20T16:55:37;17.33;;;15.90;;
32812;SDS011;19162;48.254;11.454;2022-11-20T16:58:37;9.48;;;8.68;;
32812;SDS011;19162;48.254;11.454;2022-11-20T17:01:37;9.53;;;8.83;;
32812;SDS011;19162;48.254;11.454;2022-11-20T17:04:39;5.38;;;4.88;;
32812;SDS011;19162;48.254;11.454;2022-11-20T17:07:40;8.13;;;7.40;;
32812;SDS011;19162;48.254;11.454;2022-11-20T17:10:40;13.43;;;12.23;;
32812;SDS011;19162;48.254;11.454;2022-11-20T17:13:41;6.88;;;6.28;;
32812;SDS011;19162;48.254;11.454;2022-11-20T17:16:41;5.30;;;4.82;;
32812;SDS011;19162;48.254;11.454;2022-11-20T17:19:42;4.80;;;4.20;;
32812;SDS011;19162;48.254;11.454;2022-11-20T17:22:42;7.30;;;6.80;;
32812;SDS011;19162;48.254;11.454;2022-11-20T17:25:42;11.83;;;10.97;;
32812;SDS011;19162;48.254;11.454;2022-11-20T17:28:43;11.57;;;10.47;;
32812;SDS011;19162;48.254;11.454;2022-11-20T17:31:43;14.20;;;13.07;;
32812;SDS011;19162;48.254;11.454;2022-11-20T17:34:43;7.60;;;7.00;;
32812;SDS011;19162;48.254;11.454;2022-11-20T17:37:44;9.87;;;8.93;;
32812;SDS011;19162;48.254;11.454;2022-11-20T17:40:44;14.68;;;13.35;;
32812;SDS011;19162;48.254;11.454;2022-11-20T17:43:45;9.57;;;8.68;;
32812;SDS011;19162;48.254;11.454;2022-11-20T17:46:45;7.88;;;7.18;;
32812;SDS011;19162;48.254;11.454;2022-11-20T17:49:45;11.68;;;10.68;;
32812;SDS011;19162;48.254;11.454;2022-11-20T17:52:46;6.63;;;6.07;;
32812;SDS011;19162;48.254;11.454;2022-11-20T17:55:53;5.63;;;5.13;;
32812;SDS011;19162;48.254;11.454;2022-11-20T17:59:12;6.32;;;5.90;;
32812;SDS011;19162;48.254;11.454;2022-11-20T18:02:12;7.10;;;6.43;;
32812;SDS011;19162;48.254;11.454;2022-11-20T18:05:13;10.27;;;9.40;;
32812;SDS011;19162;48.254;11.454;2022-11-20T18:08:13;8.88;;;8.18;;
32812;SDS011;19162;48.254;11.454;2022-11-20T18:14:19;9.63;;;8.80;;
32812;SDS011;19162;48.254;11.454;2022-11-20T18:17:33;10.45;;;9.63;;
32812;SDS011;19162;48.254;11.454;2022-11-20T18:20:34;8.65;;;7.95;;
32812;SDS011;19162;48.254;11.454;2022-11-20T18:23:34;9.93;;;8.98;;
32812;SDS011;19162;48.254;11.454;2022-11-20T18:26:35;17.27;;;15.90;;
32812;SDS011;19162;48.254;11.454;2022-11-20T18:29:35;13.05;;;11.90;;
32812;SDS011;19162;48.254;11.454;2022-11-20T18:32:35;10.40;;;9.35;;
32812;SDS011;19162;48.254;11.454;2022-11-20T18:35:35;10.55;;;9.65;;
32812;SDS011;19162;48.254;11.454;2022-11-20T18:38:36;11.00;;;10.17;;
32812;SDS011;19162;48.254;11.454;2022-11-20T18:41:40;10.30;;;9.40;;
32812;SDS011;19162;48.254;11.454;2022-11-20T18:44:59;10.32;;;9.43;;
32812;SDS011;19162;48.254;11.454;2022-11-20T18:48:00;8.75;;;7.95;;
32812;SDS011;19162;48.254;11.454;2022-11-20T18:51:04;9.35;;;8.40;;
32812;SDS011;19162;48.254;11.454;2022-11-20T18:54:04;8.25;;;7.43;;
32812;SDS011;19162;48.254;11.454;2022-11-20T18:57:05;10.02;;;9.15;;
32812;SDS011;19162;48.254;11.454;2022-11-20T19:00:06;11.20;;;10.20;;
32812;SDS011;19162;48.254;11.454;2022-11-20T19:03:06;17.45;;;13.13;;
32812;SDS011;19162;48.254;11.454;2022-11-20T19:06:11;17.17;;;12.93;;
32812;SDS011;19162;48.254;11.454;2022-11-20T19:09:12;23.73;;;15.85;;
32812;SDS011;19162;48.254;11.454;2022-11-20T19:12:12;26.83;;;19.30;;
32812;SDS011;19162;48.254;11.454;2022-11-20T19:15:12;23.88;;;18.02;;